Flight Track Log - Related Links

Times and Time Zones

All times are in EST time to prevent confusion due to time zone crossing. See the N449ND flight status page for this flight to view local times or setup timezone preferences in your user account.

Time Position Orientation Groundspeed Altitude Reporting Facility
EST Latitude Longitude Course Direction KTS MPH feet Rate Location/Type
Wed 06:36:37 PM 27.5019 -80.2844 299° West 61 70 3,000  Level Miami Center
Wed 06:37:00 PM 27.6044 -80.4012 347° North  Level FlightAware Approximate
Wed 06:37:37 PM 27.5289 -80.2947 341° North 79 91 3,100  Level Miami Center
Wed 06:38:00 PM 27.6072 -80.4036 336° Northwest  Level FlightAware Approximate
Wed 06:38:37 PM 27.5581 -80.3050 343° North 101 116 3,100  Level Miami Center
Wed 06:39:00 PM 27.6239 -80.4119 336° Northwest  Level FlightAware Approximate
Wed 06:39:37 PM 27.5828 -80.3128 344° North 106 122 3,100  Level Miami Center
Wed 06:40:00 PM 27.6373 -80.4245 299° West  Level FlightAware Approximate
Wed 06:40:37 PM 27.6158 -80.3278 338° Northwest 106 122 3,000  Level Miami Center
Wed 06:41:00 PM 27.6463 -80.4425 299° West  Level FlightAware Approximate
Wed 06:41:37 PM 27.6447 -80.3381 343° North 106 122 3,100  Level Miami Center
Wed 06:42:37 PM 27.6739 -80.3483 343° North 106 122 3,100  Level Miami Center
Wed 06:43:37 PM 27.7008 -80.3492 358° North 106 122 3,100 -50 Level Miami Center
Wed 06:44:37 PM 27.7342 -80.3500 359° North 106 122 3,000 -50 Descending Miami Center
Wed 06:45:37 PM 27.7697 -80.3536 355° North 106 122 3,000  Level Miami Center
Wed 06:47:19 PM 27.8167 -80.3500 North 109 125 3,000  Level Orlando TRACON
Wed 06:48:25 PM 27.8500 -80.3500 360° North 110 127 3,000  Level Orlando TRACON
Wed 06:49:26 PM 27.8833 -80.3667 336° Northwest 112 129 3,000 47 Level Orlando TRACON
Wed 06:50:32 PM 27.9167 -80.4000 319° Northwest 108 124 3,100  Climbing Orlando TRACON
Wed 06:51:26 PM 27.9333 -80.4167 319° Northwest 113 130 3,000 -50 Descending Orlando TRACON
Wed 06:52:32 PM 27.9500 -80.4500 300° West 113 130 3,000  Level Orlando TRACON
Wed 06:53:32 PM 27.9833 -80.4667 336° Northwest 109 125 3,000  Level Orlando TRACON
Wed 06:54:38 PM 28.0000 -80.5000 300° West 113 130 3,000  Level Orlando TRACON
Wed 06:55:26 PM 28.0167 -80.5167 319° Northwest 108 124 3,000  Level Orlando TRACON
Wed 06:56:32 PM 28.0500 -80.5333 336° Northwest 111 128 3,000  Level Orlando TRACON
Wed 06:57:26 PM 28.0667 -80.5500 319° Northwest 114 131 3,000  Level Orlando TRACON
Wed 06:58:26 PM 28.1000 -80.5667 336° Northwest 114 131 3,000  Level Orlando TRACON
Wed 06:59:26 PM 28.1167 -80.6000 300° West 113 130 3,000  Level Orlando TRACON
Wed 07:00:26 PM 28.1500 -80.6167 336° Northwest 111 128 3,000  Level Orlando TRACON
Wed 07:01:38 PM 28.1667 -80.6500 300° West 110 127 3,000 48 Level Orlando TRACON
Wed 07:02:32 PM 28.2000 -80.6667 336° Northwest 110 127 3,100  Climbing Orlando TRACON
Wed 07:03:44 PM 28.2333 -80.6833 336° Northwest 113 130 3,000 -53 Descending Orlando TRACON
Wed 07:04:26 PM 28.2500 -80.7000 319° Northwest 115 132 3,000 -368 Level Orlando TRACON
Wed 07:05:38 PM 28.2667 -80.7333 300° West 110 127 2,300 -409 Descending Orlando TRACON
Wed 07:06:38 PM 28.2833 -80.7500 319° Northwest 96 110 2,100 -48 Descending Orlando TRACON
Wed 07:07:44 PM 28.3167 -80.7833 319° Northwest 100 115 2,200 50 Climbing Orlando TRACON
Wed 07:08:38 PM 28.3333 -80.8000 319° Northwest 103 119 2,200  Level Orlando TRACON
Wed 07:09:39 PM 28.3667 -80.8000 360° North 96 110 2,200  Level Orlando TRACON
Wed 07:10:32 PM 28.3833 -80.8000 360° North 93 107 2,200 -159 Level Orlando TRACON
Wed 07:11:32 PM 28.4167 -80.8000 360° North 87 100 1,900 -298 Descending Orlando TRACON
Wed 07:12:33 PM 28.4333 -80.8000 360° North 64 74 1,600 -350 Descending Orlando TRACON
Wed 07:13:32 PM 28.4500 -80.8000 360° North 71 82 1,200 -381 Descending Orlando TRACON
Wed 07:14:39 PM 28.4667 -80.8000 360° North 72 83 800 -361 Descending Orlando TRACON
Wed 07:15:45 PM 28.4833 -80.8000 360° North 70 81 400 -364 Descending Orlando TRACON
Wed 07:17:00 PM 28.5000 -80.7833 348° North  Level FlightAware Approximate
Wed 07:24:00 PM 28.5148 -80.7992 348° North  Level Estimated
Wed 07:25:00 PM 28.5148 -80.7992 348° North  Level Estimated
Wed 07:26:00 PM 28.5148 -80.7992 348° North  Level Estimated
Wed 07:27:00 PM 28.5148 -80.7992 348° North  Level Estimated

Login

Don't have an account? Register now (free) for customized features, flight alerts, and more!